sensor_id;sensor_type;location;lat;lon;timestamp;P1;durP1;ratioP1;P2;durP2;ratioP2
12451;SDS011;6291;48.924;12.204;2023-02-22T00:01:15;8.53;;;5.70;;
12451;SDS011;6291;48.924;12.204;2023-02-22T00:06:36;10.03;;;4.80;;
12451;SDS011;6291;48.924;12.204;2023-02-22T00:11:45;6.77;;;4.80;;
12451;SDS011;6291;48.924;12.204;2023-02-22T00:16:49;12.10;;;5.40;;
12451;SDS011;6291;48.924;12.204;2023-02-22T00:21:52;7.57;;;4.87;;
12451;SDS011;6291;48.924;12.204;2023-02-22T00:26:57;9.33;;;5.20;;
12451;SDS011;6291;48.924;12.204;2023-02-22T00:32:00;10.87;;;5.47;;
12451;SDS011;6291;48.924;12.204;2023-02-22T00:37:04;8.10;;;5.57;;
12451;SDS011;6291;48.924;12.204;2023-02-22T00:42:09;11.37;;;5.67;;
12451;SDS011;6291;48.924;12.204;2023-02-22T00:47:12;9.43;;;6.27;;
12451;SDS011;6291;48.924;12.204;2023-02-22T00:52:16;9.77;;;7.27;;
12451;SDS011;6291;48.924;12.204;2023-02-22T00:57:21;12.60;;;6.57;;
12451;SDS011;6291;48.924;12.204;2023-02-22T01:02:24;10.60;;;6.43;;
12451;SDS011;6291;48.924;12.204;2023-02-22T01:07:28;9.50;;;6.13;;
12451;SDS011;6291;48.924;12.204;2023-02-22T01:12:33;11.60;;;6.57;;
12451;SDS011;6291;48.924;12.204;2023-02-22T01:17:38;11.30;;;6.00;;
12451;SDS011;6291;48.924;12.204;2023-02-22T01:22:44;10.63;;;6.40;;
12451;SDS011;6291;48.924;12.204;2023-02-22T01:27:51;9.20;;;6.00;;
12451;SDS011;6291;48.924;12.204;2023-02-22T01:32:55;11.07;;;6.40;;
12451;SDS011;6291;48.924;12.204;2023-02-22T01:37:59;8.30;;;5.37;;
12451;SDS011;6291;48.924;12.204;2023-02-22T01:43:04;8.40;;;5.93;;
12451;SDS011;6291;48.924;12.204;2023-02-22T01:48:17;9.77;;;5.57;;
12451;SDS011;6291;48.924;12.204;2023-02-22T01:53:26;8.43;;;5.70;;
12451;SDS011;6291;48.924;12.204;2023-02-22T01:58:44;8.00;;;6.23;;
12451;SDS011;6291;48.924;12.204;2023-02-22T02:03:53;9.17;;;5.17;;
12451;SDS011;6291;48.924;12.204;2023-02-22T02:09:02;8.30;;;5.50;;
12451;SDS011;6291;48.924;12.204;2023-02-22T02:14:12;10.03;;;5.50;;
12451;SDS011;6291;48.924;12.204;2023-02-22T02:19:19;8.00;;;5.30;;
12451;SDS011;6291;48.924;12.204;2023-02-22T02:30:12;7.37;;;5.47;;
12451;SDS011;6291;48.924;12.204;2023-02-22T02:35:41;8.10;;;5.03;;
12451;SDS011;6291;48.924;12.204;2023-02-22T02:40:54;9.73;;;5.40;;
12451;SDS011;6291;48.924;12.204;2023-02-22T02:46:07;8.03;;;5.50;;
12451;SDS011;6291;48.924;12.204;2023-02-22T02:51:16;9.37;;;5.77;;
12451;SDS011;6291;48.924;12.204;2023-02-22T02:56:23;11.00;;;6.00;;
12451;SDS011;6291;48.924;12.204;2023-02-22T03:07:04;13.00;;;7.07;;
12451;SDS011;6291;48.924;12.204;2023-02-22T03:12:25;19.93;;;7.50;;
12451;SDS011;6291;48.924;12.204;2023-02-22T03:17:37;15.15;;;7.13;;
12451;SDS011;6291;48.924;12.204;2023-02-22T03:22:51;19.83;;;7.90;;
12451;SDS011;6291;48.924;12.204;2023-02-22T03:28:01;16.27;;;7.70;;
12451;SDS011;6291;48.924;12.204;2023-02-22T03:33:09;14.07;;;7.23;;
12451;SDS011;6291;48.924;12.204;2023-02-22T03:38:17;16.33;;;6.47;;
12451;SDS011;6291;48.924;12.204;2023-02-22T03:43:23;17.73;;;6.23;;
12451;SDS011;6291;48.924;12.204;2023-02-22T03:48:35;18.57;;;5.20;;
12451;SDS011;6291;48.924;12.204;2023-02-22T03:53:46;6.30;;;4.70;;
12451;SDS011;6291;48.924;12.204;2023-02-22T03:58:52;12.27;;;4.90;;
12451;SDS011;6291;48.924;12.204;2023-02-22T04:03:55;6.93;;;5.40;;
12451;SDS011;6291;48.924;12.204;2023-02-22T04:09:00;8.07;;;5.07;;
12451;SDS011;6291;48.924;12.204;2023-02-22T04:14:04;11.90;;;5.30;;
12451;SDS011;6291;48.924;12.204;2023-02-22T04:19:08;9.93;;;5.43;;
12451;SDS011;6291;48.924;12.204;2023-02-22T04:24:14;19.00;;;5.57;;
12451;SDS011;6291;48.924;12.204;2023-02-22T04:29:18;15.40;;;6.47;;
12451;SDS011;6291;48.924;12.204;2023-02-22T04:34:22;15.73;;;5.93;;
12451;SDS011;6291;48.924;12.204;2023-02-22T04:39:27;16.27;;;6.57;;
12451;SDS011;6291;48.924;12.204;2023-02-22T04:44:31;7.40;;;5.20;;
12451;SDS011;6291;48.924;12.204;2023-02-22T04:49:35;11.00;;;5.67;;
12451;SDS011;6291;48.924;12.204;2023-02-22T04:54:41;11.90;;;5.07;;
12451;SDS011;6291;48.924;12.204;2023-02-22T04:59:45;11.03;;;6.30;;
12451;SDS011;6291;48.924;12.204;2023-02-22T05:04:48;6.80;;;6.00;;
12451;SDS011;6291;48.924;12.204;2023-02-22T05:09:53;13.97;;;7.00;;
12451;SDS011;6291;48.924;12.204;2023-02-22T05:14:56;22.50;;;7.70;;
12451;SDS011;6291;48.924;12.204;2023-02-22T05:20:00;42.83;;;7.93;;
12451;SDS011;6291;48.924;12.204;2023-02-22T05:25:06;41.37;;;7.97;;
12451;SDS011;6291;48.924;12.204;2023-02-22T05:30:12;32.03;;;7.33;;
12451;SDS011;6291;48.924;12.204;2023-02-22T05:35:15;16.07;;;6.70;;
12451;SDS011;6291;48.924;12.204;2023-02-22T05:40:21;36.60;;;7.63;;
12451;SDS011;6291;48.924;12.204;2023-02-22T05:45:26;33.45;;;8.02;;
12451;SDS011;6291;48.924;12.204;2023-02-22T05:50:29;15.03;;;6.53;;
12451;SDS011;6291;48.924;12.204;2023-02-22T05:55:35;12.17;;;6.37;;
12451;SDS011;6291;48.924;12.204;2023-02-22T06:00:38;9.10;;;6.10;;
12451;SDS011;6291;48.924;12.204;2023-02-22T06:05:42;18.95;;;5.70;;
12451;SDS011;6291;48.924;12.204;2023-02-22T06:10:47;16.10;;;7.30;;
12451;SDS011;6291;48.924;12.204;2023-02-22T06:15:50;11.43;;;6.17;;
12451;SDS011;6291;48.924;12.204;2023-02-22T06:20:54;8.93;;;5.95;;
12451;SDS011;6291;48.924;12.204;2023-02-22T06:25:58;17.33;;;6.17;;
12451;SDS011;6291;48.924;12.204;2023-02-22T06:31:02;12.93;;;6.07;;
12451;SDS011;6291;48.924;12.204;2023-02-22T06:36:05;32.07;;;8.37;;
12451;SDS011;6291;48.924;12.204;2023-02-22T06:41:11;19.60;;;9.30;;
12451;SDS011;6291;48.924;12.204;2023-02-22T06:46:16;21.03;;;6.70;;
12451;SDS011;6291;48.924;12.204;2023-02-22T06:51:22;12.67;;;6.30;;
12451;SDS011;6291;48.924;12.204;2023-02-22T06:56:27;23.27;;;7.07;;
12451;SDS011;6291;48.924;12.204;2023-02-22T07:01:30;11.63;;;7.70;;
12451;SDS011;6291;48.924;12.204;2023-02-22T07:06:33;16.40;;;7.33;;
12451;SDS011;6291;48.924;12.204;2023-02-22T07:11:39;15.53;;;9.30;;
12451;SDS011;6291;48.924;12.204;2023-02-22T07:16:43;10.35;;;7.03;;
12451;SDS011;6291;48.924;12.204;2023-02-22T07:21:46;7.22;;;6.32;;
12451;SDS011;6291;48.924;12.204;2023-02-22T07:26:52;9.90;;;6.90;;
12451;SDS011;6291;48.924;12.204;2023-02-22T07:31:55;17.13;;;7.53;;
12451;SDS011;6291;48.924;12.204;2023-02-22T07:36:59;31.52;;;12.70;;
12451;SDS011;6291;48.924;12.204;2023-02-22T07:42:04;25.73;;;9.65;;
12451;SDS011;6291;48.924;12.204;2023-02-22T07:47:10;15.32;;;10.05;;
12451;SDS011;6291;48.924;12.204;2023-02-22T07:52:14;13.68;;;8.63;;
12451;SDS011;6291;48.924;12.204;2023-02-22T07:57:19;12.40;;;8.90;;
12451;SDS011;6291;48.924;12.204;2023-02-22T08:02:22;11.77;;;9.48;;
12451;SDS011;6291;48.924;12.204;2023-02-22T08:07:27;11.07;;;9.05;;
12451;SDS011;6291;48.924;12.204;2023-02-22T08:12:32;26.98;;;10.43;;
12451;SDS011;6291;48.924;12.204;2023-02-22T08:17:36;10.10;;;8.85;;
12451;SDS011;6291;48.924;12.204;2023-02-22T08:22:41;11.88;;;8.50;;
12451;SDS011;6291;48.924;12.204;2023-02-22T08:27:46;14.93;;;10.10;;
12451;SDS011;6291;48.924;12.204;2023-02-22T08:32:51;12.10;;;6.93;;
12451;SDS011;6291;48.924;12.204;2023-02-22T08:37:55;25.48;;;6.78;;
12451;SDS011;6291;48.924;12.204;2023-02-22T08:43:01;9.10;;;5.55;;
12451;SDS011;6291;48.924;12.204;2023-02-22T08:48:05;9.43;;;4.93;;
12451;SDS011;6291;48.924;12.204;2023-02-22T08:53:09;9.25;;;5.90;;
12451;SDS011;6291;48.924;12.204;2023-02-22T08:58:16;7.50;;;5.10;;
12451;SDS011;6291;48.924;12.204;2023-02-22T09:03:19;9.57;;;4.80;;
12451;SDS011;6291;48.924;12.204;2023-02-22T09:08:23;5.45;;;4.95;;
12451;SDS011;6291;48.924;12.204;2023-02-22T09:13:27;5.40;;;4.90;;
12451;SDS011;6291;48.924;12.204;2023-02-22T09:18:31;6.50;;;5.90;;
12451;SDS011;6291;48.924;12.204;2023-02-22T09:23:45;7.13;;;6.47;;
12451;SDS011;6291;48.924;12.204;2023-02-22T09:28:50;6.10;;;5.50;;
12451;SDS011;6291;48.924;12.204;2023-02-22T09:33:53;6.60;;;5.15;;
12451;SDS011;6291;48.924;12.204;2023-02-22T09:38:56;7.40;;;6.57;;
12451;SDS011;6291;48.924;12.204;2023-02-22T09:44:04;5.85;;;5.35;;
12451;SDS011;6291;48.924;12.204;2023-02-22T09:49:19;6.30;;;5.80;;
12451;SDS011;6291;48.924;12.204;2023-02-22T09:54:27;6.35;;;5.75;;
12451;SDS011;6291;48.924;12.204;2023-02-22T09:59:38;6.82;;;6.13;;
12451;SDS011;6291;48.924;12.204;2023-02-22T10:04:46;7.40;;;6.80;;
12451;SDS011;6291;48.924;12.204;2023-02-22T10:09:54;6.50;;;5.90;;
12451;SDS011;6291;48.924;12.204;2023-02-22T10:20:38;6.07;;;5.53;;
12451;SDS011;6291;48.924;12.204;2023-02-22T10:25:48;5.75;;;5.20;;
12451;SDS011;6291;48.924;12.204;2023-02-22T10:31:01;5.22;;;4.80;;
12451;SDS011;6291;48.924;12.204;2023-02-22T10:36:09;5.03;;;4.57;;
12451;SDS011;6291;48.924;12.204;2023-02-22T10:41:20;3.88;;;3.58;;
12451;SDS011;6291;48.924;12.204;2023-02-22T10:46:31;4.47;;;3.78;;
12451;SDS011;6291;48.924;12.204;2023-02-22T10:51:36;4.10;;;3.70;;
12451;SDS011;6291;48.924;12.204;2023-02-22T10:56:45;5.55;;;4.50;;
12451;SDS011;6291;48.924;12.204;2023-02-22T11:01:50;4.95;;;3.92;;
12451;SDS011;6291;48.924;12.204;2023-02-22T11:07:06;4.25;;;3.88;;
12451;SDS011;6291;48.924;12.204;2023-02-22T11:12:15;4.93;;;4.43;;
12451;SDS011;6291;48.924;12.204;2023-02-22T11:17:29;4.95;;;4.45;;
12451;SDS011;6291;48.924;12.204;2023-02-22T11:22:36;5.05;;;4.55;;
12451;SDS011;6291;48.924;12.204;2023-02-22T11:27:42;4.72;;;4.30;;
12451;SDS011;6291;48.924;12.204;2023-02-22T11:32:49;4.70;;;4.05;;
12451;SDS011;6291;48.924;12.204;2023-02-22T11:38:07;5.22;;;4.82;;
12451;SDS011;6291;48.924;12.204;2023-02-22T11:43:13;6.05;;;4.90;;
12451;SDS011;6291;48.924;12.204;2023-02-22T11:48:19;5.25;;;4.75;;
12451;SDS011;6291;48.924;12.204;2023-02-22T11:53:25;4.57;;;4.13;;
12451;SDS011;6291;48.924;12.204;2023-02-22T11:58:42;5.00;;;4.25;;
12451;SDS011;6291;48.924;12.204;2023-02-22T12:03:55;5.10;;;4.60;;
12451;SDS011;6291;48.924;12.204;2023-02-22T12:09:24;5.80;;;4.38;;
12451;SDS011;6291;48.924;12.204;2023-02-22T12:14:39;4.90;;;4.28;;
12451;SDS011;6291;48.924;12.204;2023-02-22T12:19:52;5.25;;;4.75;;
12451;SDS011;6291;48.924;12.204;2023-02-22T12:25:02;4.90;;;4.40;;
12451;SDS011;6291;48.924;12.204;2023-02-22T12:30:11;5.40;;;4.40;;
12451;SDS011;6291;48.924;12.204;2023-02-22T12:35:21;4.28;;;3.88;;
12451;SDS011;6291;48.924;12.204;2023-02-22T12:40:29;4.68;;;4.28;;
12451;SDS011;6291;48.924;12.204;2023-02-22T12:45:39;5.30;;;4.80;;
12451;SDS011;6291;48.924;12.204;2023-02-22T12:50:48;4.55;;;4.15;;
12451;SDS011;6291;48.924;12.204;2023-02-22T12:55:57;4.68;;;3.97;;
12451;SDS011;6291;48.924;12.204;2023-02-22T13:01:10;4.35;;;3.95;;
12451;SDS011;6291;48.924;12.204;2023-02-22T13:06:23;4.68;;;3.95;;
12451;SDS011;6291;48.924;12.204;2023-02-22T13:58:18;4.53;;;3.70;;
12451;SDS011;6291;48.924;12.204;2023-02-22T14:03:38;3.75;;;3.45;;
12451;SDS011;6291;48.924;12.204;2023-02-22T14:08:47;3.53;;;2.92;;
12451;SDS011;6291;48.924;12.204;2023-02-22T14:14:09;3.50;;;3.20;;
12451;SDS011;6291;48.924;12.204;2023-02-22T14:19:19;3.83;;;2.90;;
12451;SDS011;6291;48.924;12.204;2023-02-22T14:24:26;4.05;;;2.78;;
12451;SDS011;6291;48.924;12.204;2023-02-22T14:29:31;3.42;;;3.10;;
12451;SDS011;6291;48.924;12.204;2023-02-22T14:34:39;3.35;;;3.03;;
12451;SDS011;6291;48.924;12.204;2023-02-22T14:39:53;2.97;;;2.67;;
12451;SDS011;6291;48.924;12.204;2023-02-22T14:45:04;4.60;;;3.33;;
12451;SDS011;6291;48.924;12.204;2023-02-22T14:50:19;3.90;;;3.50;;
12451;SDS011;6291;48.924;12.204;2023-02-22T14:55:28;4.28;;;3.08;;
12451;SDS011;6291;48.924;12.204;2023-02-22T15:00:38;4.00;;;2.70;;
12451;SDS011;6291;48.924;12.204;2023-02-22T15:05:42;3.20;;;2.90;;
12451;SDS011;6291;48.924;12.204;2023-02-22T15:10:47;3.25;;;2.70;;
12451;SDS011;6291;48.924;12.204;2023-02-22T15:15:55;6.90;;;4.53;;
12451;SDS011;6291;48.924;12.204;2023-02-22T15:21:03;3.78;;;2.95;;
12451;SDS011;6291;48.924;12.204;2023-02-22T15:26:16;3.67;;;3.28;;
12451;SDS011;6291;48.924;12.204;2023-02-22T15:31:22;3.38;;;3.08;;
12451;SDS011;6291;48.924;12.204;2023-02-22T15:36:29;4.43;;;3.22;;
12451;SDS011;6291;48.924;12.204;2023-02-22T15:41:34;4.43;;;3.63;;
12451;SDS011;6291;48.924;12.204;2023-02-22T15:46:37;4.30;;;3.90;;
12451;SDS011;6291;48.924;12.204;2023-02-22T15:51:41;3.72;;;3.30;;
12451;SDS011;6291;48.924;12.204;2023-02-22T15:56:48;4.07;;;3.40;;
12451;SDS011;6291;48.924;12.204;2023-02-22T16:01:57;4.13;;;3.20;;
12451;SDS011;6291;48.924;12.204;2023-02-22T16:07:02;3.67;;;3.22;;
12451;SDS011;6291;48.924;12.204;2023-02-22T16:12:24;3.40;;;2.95;;
12451;SDS011;6291;48.924;12.204;2023-02-22T16:17:31;7.30;;;3.60;;
12451;SDS011;6291;48.924;12.204;2023-02-22T16:22:37;4.65;;;3.75;;
12451;SDS011;6291;48.924;12.204;2023-02-22T16:27:52;4.70;;;3.53;;
12451;SDS011;6291;48.924;12.204;2023-02-22T16:32:58;5.43;;;3.83;;
12451;SDS011;6291;48.924;12.204;2023-02-22T16:38:06;7.32;;;4.95;;
12451;SDS011;6291;48.924;12.204;2023-02-22T16:43:20;5.53;;;4.70;;
12451;SDS011;6291;48.924;12.204;2023-02-22T16:48:26;5.63;;;4.40;;
12451;SDS011;6291;48.924;12.204;2023-02-22T16:53:31;7.07;;;5.10;;
12451;SDS011;6291;48.924;12.204;2023-02-22T16:58:36;7.32;;;4.72;;
12451;SDS011;6291;48.924;12.204;2023-02-22T17:03:42;8.48;;;6.10;;
12451;SDS011;6291;48.924;12.204;2023-02-22T17:08:46;11.40;;;8.13;;
12451;SDS011;6291;48.924;12.204;2023-02-22T17:13:53;18.00;;;12.32;;
12451;SDS011;6291;48.924;12.204;2023-02-22T17:18:57;16.08;;;12.07;;
12451;SDS011;6291;48.924;12.204;2023-02-22T17:24:00;21.45;;;12.90;;
12451;SDS011;6291;48.924;12.204;2023-02-22T17:29:05;24.02;;;13.10;;
12451;SDS011;6291;48.924;12.204;2023-02-22T17:34:08;13.50;;;9.45;;
12451;SDS011;6291;48.924;12.204;2023-02-22T17:39:12;15.98;;;9.57;;
12451;SDS011;6291;48.924;12.204;2023-02-22T17:44:16;9.48;;;6.63;;
12451;SDS011;6291;48.924;12.204;2023-02-22T17:49:19;17.95;;;10.35;;
12451;SDS011;6291;48.924;12.204;2023-02-22T17:54:23;17.30;;;8.95;;
12451;SDS011;6291;48.924;12.204;2023-02-22T17:59:28;18.95;;;10.63;;
12451;SDS011;6291;48.924;12.204;2023-02-22T18:04:32;26.90;;;13.75;;
12451;SDS011;6291;48.924;12.204;2023-02-22T18:09:37;35.33;;;17.77;;
12451;SDS011;6291;48.924;12.204;2023-02-22T18:14:43;42.92;;;21.55;;
12451;SDS011;6291;48.924;12.204;2023-02-22T18:19:47;75.13;;;32.78;;
12451;SDS011;6291;48.924;12.204;2023-02-22T18:24:50;65.13;;;29.88;;
12451;SDS011;6291;48.924;12.204;2023-02-22T18:30:01;57.67;;;26.60;;
12451;SDS011;6291;48.924;12.204;2023-02-22T18:35:05;57.10;;;25.85;;
12451;SDS011;6291;48.924;12.204;2023-02-22T18:40:09;35.90;;;17.53;;
12451;SDS011;6291;48.924;12.204;2023-02-22T18:45:13;26.83;;;14.57;;
12451;SDS011;6291;48.924;12.204;2023-02-22T18:50:17;29.30;;;13.85;;
12451;SDS011;6291;48.924;12.204;2023-02-22T18:55:21;33.47;;;16.13;;
12451;SDS011;6291;48.924;12.204;2023-02-22T19:00:26;27.40;;;14.18;;
12451;SDS011;6291;48.924;12.204;2023-02-22T19:05:29;25.13;;;13.50;;
12451;SDS011;6291;48.924;12.204;2023-02-22T19:10:33;22.42;;;12.82;;
12451;SDS011;6291;48.924;12.204;2023-02-22T19:15:38;20.35;;;13.02;;
12451;SDS011;6291;48.924;12.204;2023-02-22T19:20:42;21.98;;;13.68;;
12451;SDS011;6291;48.924;12.204;2023-02-22T19:25:46;22.25;;;13.90;;
12451;SDS011;6291;48.924;12.204;2023-02-22T19:30:51;21.73;;;13.70;;
12451;SDS011;6291;48.924;12.204;2023-02-22T19:35:58;19.92;;;11.73;;
12451;SDS011;6291;48.924;12.204;2023-02-22T19:41:05;23.20;;;11.73;;
12451;SDS011;6291;48.924;12.204;2023-02-22T19:46:12;15.70;;;9.75;;
12451;SDS011;6291;48.924;12.204;2023-02-22T19:51:19;13.07;;;8.63;;
12451;SDS011;6291;48.924;12.204;2023-02-22T19:56:25;13.07;;;8.90;;
12451;SDS011;6291;48.924;12.204;2023-02-22T20:01:32;11.10;;;7.45;;
12451;SDS011;6291;48.924;12.204;2023-02-22T20:06:35;6.95;;;5.70;;
12451;SDS011;6291;48.924;12.204;2023-02-22T20:11:41;9.32;;;6.18;;
12451;SDS011;6291;48.924;12.204;2023-02-22T20:16:46;6.05;;;5.00;;
12451;SDS011;6291;48.924;12.204;2023-02-22T20:21:50;9.73;;;6.07;;
12451;SDS011;6291;48.924;12.204;2023-02-22T20:26:56;16.90;;;10.02;;
12451;SDS011;6291;48.924;12.204;2023-02-22T20:32:01;16.38;;;8.57;;
12451;SDS011;6291;48.924;12.204;2023-02-22T20:37:06;9.15;;;6.40;;
12451;SDS011;6291;48.924;12.204;2023-02-22T20:42:09;7.25;;;5.55;;
12451;SDS011;6291;48.924;12.204;2023-02-22T20:47:14;7.45;;;6.63;;
12451;SDS011;6291;48.924;12.204;2023-02-22T20:52:17;10.05;;;7.38;;
12451;SDS011;6291;48.924;12.204;2023-02-22T20:57:20;11.10;;;7.28;;
12451;SDS011;6291;48.924;12.204;2023-02-22T21:02:25;7.40;;;5.88;;
12451;SDS011;6291;48.924;12.204;2023-02-22T21:07:28;9.07;;;5.80;;
12451;SDS011;6291;48.924;12.204;2023-02-22T21:12:32;10.32;;;8.13;;
12451;SDS011;6291;48.924;12.204;2023-02-22T21:17:37;9.07;;;6.60;;
12451;SDS011;6291;48.924;12.204;2023-02-22T21:22:40;7.85;;;5.68;;
12451;SDS011;6291;48.924;12.204;2023-02-22T21:27:45;7.63;;;5.53;;
12451;SDS011;6291;48.924;12.204;2023-02-22T21:32:50;7.63;;;5.35;;
12451;SDS011;6291;48.924;12.204;2023-02-22T21:37:55;6.65;;;5.00;;
12451;SDS011;6291;48.924;12.204;2023-02-22T21:42:58;6.55;;;5.30;;
12451;SDS011;6291;48.924;12.204;2023-02-22T21:48:04;6.65;;;5.13;;
12451;SDS011;6291;48.924;12.204;2023-02-22T21:53:08;7.10;;;5.57;;
12451;SDS011;6291;48.924;12.204;2023-02-22T21:58:13;8.80;;;5.75;;
12451;SDS011;6291;48.924;12.204;2023-02-22T22:03:18;6.78;;;5.72;;
12451;SDS011;6291;48.924;12.204;2023-02-22T22:08:22;9.70;;;5.80;;
12451;SDS011;6291;48.924;12.204;2023-02-22T22:13:27;7.80;;;5.93;;
12451;SDS011;6291;48.924;12.204;2023-02-22T22:18:32;11.95;;;7.55;;
12451;SDS011;6291;48.924;12.204;2023-02-22T22:23:37;7.55;;;5.70;;
12451;SDS011;6291;48.924;12.204;2023-02-22T22:28:41;5.72;;;4.75;;
12451;SDS011;6291;48.924;12.204;2023-02-22T22:33:48;7.82;;;5.60;;
12451;SDS011;6291;48.924;12.204;2023-02-22T22:38:52;7.65;;;4.65;;
12451;SDS011;6291;48.924;12.204;2023-02-22T22:43:58;6.75;;;4.97;;
12451;SDS011;6291;48.924;12.204;2023-02-22T22:49:02;6.30;;;4.13;;
12451;SDS011;6291;48.924;12.204;2023-02-22T22:54:07;5.18;;;4.22;;
12451;SDS011;6291;48.924;12.204;2023-02-22T22:59:11;4.38;;;3.70;;
12451;SDS011;6291;48.924;12.204;2023-02-22T23:04:16;8.38;;;4.30;;
12451;SDS011;6291;48.924;12.204;2023-02-22T23:09:20;8.13;;;4.78;;
12451;SDS011;6291;48.924;12.204;2023-02-22T23:14:25;5.00;;;4.50;;
12451;SDS011;6291;48.924;12.204;2023-02-22T23:19:33;6.20;;;4.45;;
12451;SDS011;6291;48.924;12.204;2023-02-22T23:24:38;7.63;;;5.97;;
12451;SDS011;6291;48.924;12.204;2023-02-22T23:29:44;8.98;;;6.47;;
12451;SDS011;6291;48.924;12.204;2023-02-22T23:34:51;9.02;;;6.60;;
12451;SDS011;6291;48.924;12.204;2023-02-22T23:39:54;9.07;;;5.72;;
12451;SDS011;6291;48.924;12.204;2023-02-22T23:45:00;9.18;;;5.90;;
12451;SDS011;6291;48.924;12.204;2023-02-22T23:50:06;8.68;;;6.43;;
12451;SDS011;6291;48.924;12.204;2023-02-22T23:55:14;48.65;;;19.45;;
